Time;durP1;ratioP1;P1;durP2;ratioP2;P2;SDS_P1;SDS_P2;PMS_P1;PMS_P2;Temp;Humidity;BMP_temperature;BMP_pressure;BME280_temperature;BME280_humidity;BME280_pressure;Samples;Min_cycle;Max_cycle;Signal;HPM_P1;HPM_P2
2022/09/04 00:00:18;;;;;;;3.30;2.10;;;17.80;99.90;;;;;;5009738;28;20060;-75
2022/09/04 00:02:58;;;;;;;2.20;1.65;;;17.80;99.90;;;;;;5024544;28;20052;-76
2022/09/04 00:05:41;;;;;;;3.15;2.30;;;17.60;99.90;;;;;;5026856;28;20045;-76
2022/09/04 00:08:38;;;;;;;3.22;2.20;;;17.60;99.90;;;;;;5025798;28;20241;-75
2022/09/04 00:11:22;;;;;;;3.75;1.60;;;17.50;99.90;;;;;;5023693;28;20537;-76
2022/09/04 00:13:56;;;;;;;2.58;1.30;;;17.40;99.90;;;;;;5022799;28;20709;-76
2022/09/04 00:16:27;;;;;;;2.42;1.15;;;17.40;99.90;;;;;;5025358;28;20034;-76
2022/09/04 00:19:15;;;;;;;2.83;1.65;;;17.50;99.90;;;;;;5026580;28;20028;-76
2022/09/04 00:21:56;;;;;;;3.00;1.60;;;17.30;99.90;;;;;;5021699;28;20038;-76
2022/09/04 00:24:27;;;;;;;2.90;1.17;;;17.20;99.90;;;;;;5024172;28;20041;-76
2022/09/04 00:27:26;;;;;;;3.92;1.52;;;17.20;99.90;;;;;;5040130;28;20026;-76
2022/09/04 00:30:01;;;;;;;2.63;1.35;;;17.10;99.90;;;;;;4973102;28;20041;-76
2022/09/04 00:32:48;;;;;;;3.55;1.20;;;17.10;99.90;;;;;;5024683;28;20037;-76
2022/09/04 00:35:31;;;;;;;2.80;1.10;;;17.10;99.90;;;;;;5026131;28;20104;-76
2022/09/04 00:38:02;;;;;;;2.22;0.88;;;17.10;99.90;;;;;;5023006;28;20021;-77
2022/09/04 00:40:34;;;;;;;1.98;1.00;;;17.00;99.90;;;;;;4996952;28;20038;-77
2022/09/04 00:43:21;;;;;;;1.80;1.02;;;17.00;99.90;;;;;;4985154;28;20038;-76
2022/09/04 00:46:21;;;;;;;1.98;0.75;;;17.10;99.90;;;;;;4985013;28;20045;-77
2022/09/04 00:49:02;;;;;;;;;;;17.20;99.90;;;;;;5002772;28;20513;-76
2022/09/04 00:51:43;;;;;;;1.38;0.60;;;17.40;99.90;;;;;;5003216;28;19913;-77
2022/09/04 00:54:36;;;;;;;1.38;0.60;;;17.40;99.90;;;;;;4986478;28;20030;-76
2022/09/04 00:57:15;;;;;;;1.75;0.60;;;17.50;99.90;;;;;;4998202;28;20198;-77
2022/09/04 01:00:08;;;;;;;1.55;0.80;;;17.40;99.90;;;;;;4984986;28;20062;-77
2022/09/04 01:03:06;;;;;;;2.50;0.75;;;17.40;99.90;;;;;;4987714;28;20037;-77
2022/09/04 01:06:07;;;;;;;2.00;1.00;;;17.50;99.90;;;;;;4979543;28;20042;-77
2022/09/04 01:08:54;;;;;;;1.73;0.82;;;17.50;99.90;;;;;;4987222;28;20037;-76
2022/09/04 01:11:58;;;;;;;1.38;0.70;;;17.40;99.90;;;;;;4984767;28;20038;-76
2022/09/04 01:14:33;;;;;;;1.83;0.70;;;17.40;99.90;;;;;;4958109;28;20047;-76
2022/09/04 01:17:23;;;;;;;3.15;0.70;;;17.50;99.90;;;;;;4940988;28;20063;-76
2022/09/04 01:20:18;;;;;;;1.75;0.70;;;17.40;99.90;;;;;;4955482;28;20511;-77
2022/09/04 01:23:24;;;;;;;1.77;0.70;;;17.40;99.90;;;;;;4964090;28;20046;-76
2022/09/04 01:26:11;;;;;;;1.80;0.85;;;17.40;99.90;;;;;;4955905;28;20043;-76
2022/09/04 01:28:52;;;;;;;1.80;0.68;;;17.30;99.90;;;;;;4964714;28;20035;-76
2022/09/04 01:31:37;;;;;;;2.58;0.70;;;17.30;99.90;;;;;;4964224;28;20046;-76
2022/09/04 01:34:29;;;;;;;2.22;0.85;;;17.30;99.90;;;;;;4951299;28;20069;-77
2022/09/04 01:37:10;;;;;;;1.40;0.60;;;17.30;99.90;;;;;;4946160;28;20423;-76
2022/09/04 01:39:38;;;;;;;1.60;0.70;;;17.20;99.90;;;;;;4961621;28;20146;-77
2022/09/04 01:42:34;;;;;;;1.30;0.68;;;17.30;99.90;;;;;;4962331;28;20078;-76
2022/09/04 01:44:59;;;;;;;1.80;0.70;;;17.20;99.90;;;;;;4947379;28;20504;-77
2022/09/04 01:47:30;;;;;;;2.80;1.00;;;17.30;99.90;;;;;;4978070;28;20106;-76
2022/09/04 01:50:03;;;;;;;1.85;0.80;;;17.30;99.90;;;;;;4969203;28;20145;-76
2022/09/04 01:52:35;;;;;;;2.45;0.88;;;17.30;99.90;;;;;;5021904;28;20037;-77
2022/09/04 01:55:12;;;;;;;2.30;0.90;;;17.20;99.90;;;;;;5002150;28;20574;-77
2022/09/04 01:58:16;;;;;;;2.10;0.77;;;17.20;99.90;;;;;;5003363;28;20033;-76
2022/09/04 02:00:55;;;;;;;1.73;0.77;;;17.20;99.90;;;;;;5000641;28;20037;-76
2022/09/04 02:03:32;;;;;;;1.70;0.88;;;17.20;99.90;;;;;;5020138;28;20034;-77
2022/09/04 02:06:27;;;;;;;1.65;0.63;;;17.20;99.90;;;;;;5007558;28;20026;-76
2022/09/04 02:09:19;;;;;;;2.10;0.82;;;17.20;99.90;;;;;;5001751;28;20121;-76
2022/09/04 02:11:50;;;;;;;2.05;0.82;;;17.20;99.90;;;;;;5001641;28;20121;-76
2022/09/04 02:14:43;;;;;;;1.92;1.00;;;17.20;99.90;;;;;;5006337;28;20038;-76
2022/09/04 02:17:17;;;;;;;1.88;1.05;;;17.10;99.90;;;;;;5000324;28;20113;-76
2022/09/04 02:20:18;;;;;;;2.08;1.20;;;17.00;99.90;;;;;;5018046;28;20029;-77
2022/09/04 02:23:12;;;;;;;2.15;1.13;;;17.00;99.90;;;;;;4998098;28;20057;-76
2022/09/04 02:26:06;;;;;;;2.10;1.27;;;17.00;99.90;;;;;;5003091;28;20018;-76
2022/09/04 02:28:57;;;;;;;2.58;0.80;;;16.90;99.90;;;;;;5003734;28;20018;-76
2022/09/04 02:31:48;;;;;;;2.25;1.20;;;16.90;99.90;;;;;;5003879;28;20037;-76
2022/09/04 02:34:37;;;;;;;3.17;1.90;;;16.90;99.90;;;;;;5021053;28;20038;-76
2022/09/04 02:37:14;;;;;;;2.63;1.30;;;16.70;99.90;;;;;;5002430;28;20092;-76
2022/09/04 02:40:13;;;;;;;2.83;1.55;;;16.60;99.90;;;;;;4999654;28;20304;-76
2022/09/04 02:42:58;;;;;;;2.85;1.75;;;16.50;99.90;;;;;;5003690;28;20049;-77
2022/09/04 02:45:54;;;;;;;3.55;1.73;;;16.50;99.90;;;;;;5001272;28;20117;-76
2022/09/04 02:49:02;;;;;;;2.65;1.70;;;16.30;99.90;;;;;;4999409;28;20066;-77
2022/09/04 02:52:05;;;;;;;2.38;1.40;;;16.30;99.90;;;;;;4981782;28;20061;-76
2022/09/04 02:54:58;;;;;;;2.38;1.40;;;16.30;99.90;;;;;;5003655;28;20018;-76
2022/09/04 02:58:00;;;;;;;2.65;1.13;;;16.20;99.90;;;;;;4999952;28;20038;-77
2022/09/04 03:01:02;;;;;;;2.97;1.88;;;16.20;99.90;;;;;;5002268;28;20030;-76
2022/09/04 03:03:33;;;;;;;3.33;1.65;;;16.20;99.90;;;;;;4943088;28;20054;-76
2022/09/04 03:06:07;;;;;;;2.30;1.52;;;16.10;99.90;;;;;;4944098;28;20043;-77
2022/09/04 03:08:48;;;;;;;2.80;1.42;;;16.10;99.90;;;;;;4946771;28;20047;-77
2022/09/04 03:11:29;;;;;;;2.63;1.30;;;16.10;99.90;;;;;;4921256;28;20138;-76
2022/09/04 03:14:14;;;;;;;4.13;1.60;;;16.10;99.90;;;;;;4923745;28;20126;-77
2022/09/04 03:17:03;;;;;;;2.50;1.30;;;16.20;99.90;;;;;;4929333;28;20085;-77
2022/09/04 03:19:50;;;;;;;2.58;1.92;;;16.30;99.90;;;;;;4938283;28;20551;-76
2022/09/04 03:22:37;;;;;;;4.35;1.80;;;16.20;99.90;;;;;;4933471;28;20045;-77
2022/09/04 03:25:38;;;;;;;2.67;2.00;;;16.10;99.90;;;;;;4946710;28;20031;-77
2022/09/04 03:28:07;;;;;;;2.20;1.63;;;16.00;99.90;;;;;;4934659;28;20555;-76
2022/09/04 03:30:35;;;;;;;3.08;1.90;;;15.90;99.90;;;;;;4924839;28;20023;-76
2022/09/04 03:33:11;;;;;;;3.47;1.83;;;16.00;99.90;;;;;;4945553;28;20075;-77
2022/09/04 03:36:08;;;;;;;3.08;1.80;;;16.00;99.90;;;;;;4946385;28;20467;-77
2022/09/04 03:38:56;;;;;;;3.10;2.80;;;15.90;99.90;;;;;;4934123;28;20030;-77
2022/09/04 03:41:28;;;;;;;3.45;2.25;;;15.70;99.90;;;;;;5006564;28;20046;-77
2022/09/04 03:44:33;;;;;;;3.65;2.53;;;15.60;99.90;;;;;;5016373;28;20025;-77
2022/09/04 03:47:14;;;;;;;3.00;1.95;;;15.60;99.90;;;;;;4945847;28;20046;-76
2022/09/04 03:50:05;;;;;;;4.70;2.33;;;15.70;99.90;;;;;;4924744;28;20041;-77
2022/09/04 03:52:45;;;;;;;2.80;2.22;;;15.80;99.90;;;;;;4944910;28;20051;-76
2022/09/04 03:55:48;;;;;;;2.95;2.45;;;15.70;99.90;;;;;;4937250;28;20313;-77
2022/09/04 03:58:31;;;;;;;2.92;2.40;;;15.60;99.90;;;;;;4924915;28;20044;-77
2022/09/04 04:01:17;;;;;;;2.75;2.20;;;15.60;99.90;;;;;;4946361;28;20492;-76
2022/09/04 04:04:18;;;;;;;3.30;2.35;;;15.60;99.90;;;;;;4929764;28;20027;-76
2022/09/04 04:06:56;;;;;;;3.25;2.35;;;15.70;99.90;;;;;;4934140;28;20027;-76
2022/09/04 04:09:49;;;;;;;2.65;2.33;;;15.60;99.90;;;;;;4934194;28;20027;-77
2022/09/04 04:12:33;;;;;;;2.83;2.15;;;15.70;99.90;;;;;;4925590;28;20043;-76
2022/09/04 04:15:36;;;;;;;3.08;2.38;;;15.60;99.90;;;;;;4945267;28;20532;-77
2022/09/04 04:18:12;;;;;;;4.00;2.28;;;15.60;99.90;;;;;;4983207;28;20031;-76
2022/09/04 04:21:04;;;;;;;3.67;2.33;;;15.60;99.90;;;;;;5004584;28;20026;-76
2022/09/04 04:23:57;;;;;;;2.78;2.13;;;15.60;99.90;;;;;;5020269;28;20056;-77
2022/09/04 04:26:46;;;;;;;2.58;2.13;;;15.70;99.90;;;;;;5005809;28;20548;-77
2022/09/04 04:29:39;;;;;;;4.03;2.30;;;15.90;99.90;;;;;;5006120;28;20052;-76
2022/09/04 04:32:27;;;;;;;4.40;2.33;;;15.90;99.90;;;;;;5018576;28;20389;-76
2022/09/04 04:35:11;;;;;;;5.60;2.85;;;15.80;99.90;;;;;;5001827;28;20031;-76
2022/09/04 04:37:52;;;;;;;4.07;2.92;;;15.90;99.90;;;;;;5005060;28;20045;-76
2022/09/04 04:40:44;;;;;;;5.95;3.45;;;15.90;99.90;;;;;;5020997;28;20129;-77
2022/09/04 04:43:18;;;;;;;3.33;2.75;;;15.80;99.90;;;;;;5004309;28;20026;-76
2022/09/04 04:46:08;;;;;;;4.95;3.42;;;15.80;99.90;;;;;;5037305;28;20459;-76
2022/09/04 04:49:04;;;;;;;3.38;2.83;;;15.70;99.90;;;;;;5004975;28;20056;-77
2022/09/04 04:51:57;;;;;;;4.22;3.35;;;15.60;99.90;;;;;;5005239;28;20462;-76
2022/09/04 04:55:07;;;;;;;3.95;3.33;;;15.60;99.90;;;;;;5006717;28;20026;-77
2022/09/04 04:57:38;;;;;;;6.18;2.67;;;15.60;99.90;;;;;;5004873;28;20025;-77
2022/09/04 05:00:10;;;;;;;4.68;2.72;;;15.80;99.90;;;;;;5035975;28;20514;-76
2022/09/04 05:02:49;;;;;;;3.78;2.95;;;15.80;99.90;;;;;;5020858;28;20038;-77
2022/09/04 05:05:21;;;;;;;5.05;3.25;;;15.80;99.90;;;;;;5021904;28;20374;-76
2022/09/04 05:08:16;;;;;;;3.90;3.15;;;15.80;99.90;;;;;;5019624;28;20037;-77
2022/09/04 05:10:47;;;;;;;3.63;3.03;;;15.80;99.90;;;;;;5037507;28;20053;-77
2022/09/04 05:13:34;;;;;;;3.58;3.15;;;15.80;99.90;;;;;;5035044;28;20038;-76
2022/09/04 05:16:22;;;;;;;4.22;3.40;;;15.90;99.90;;;;;;5014727;28;20022;-76
2022/09/04 05:19:14;;;;;;;3.83;2.95;;;15.90;99.90;;;;;;5006016;28;20061;-76
2022/09/04 05:22:10;;;;;;;3.75;3.00;;;16.00;99.90;;;;;;4986353;28;20175;-77
2022/09/04 05:25:10;;;;;;;4.32;3.65;;;16.10;99.90;;;;;;5004250;28;20046;-76
2022/09/04 05:28:23;;;;;;;4.22;3.13;;;16.00;99.90;;;;;;5003128;28;20034;-77
2022/09/04 05:31:01;;;;;;;3.50;2.85;;;16.10;99.90;;;;;;4947018;28;22018;-76
2022/09/04 05:34:11;;;;;;;3.65;3.30;;;16.10;99.90;;;;;;4947541;28;20047;-76
2022/09/04 05:36:43;;;;;;;6.07;3.33;;;16.20;99.90;;;;;;4899728;28;20047;-76
2022/09/04 05:39:27;;;;;;;5.10;3.75;;;16.20;99.90;;;;;;4936740;28;20031;-77
2022/09/04 05:42:17;;;;;;;3.88;3.50;;;16.20;99.90;;;;;;4913332;28;20110;-76
2022/09/04 05:44:57;;;;;;;4.45;3.00;;;16.20;99.90;;;;;;4909792;28;20035;-76
2022/09/04 05:47:35;;;;;;;4.90;3.55;;;16.20;99.90;;;;;;4929749;28;20035;-76
2022/09/04 05:50:12;;;;;;;4.50;3.47;;;16.30;99.90;;;;;;4946858;28;20433;-76
2022/09/04 05:52:49;;;;;;;5.18;3.35;;;16.40;99.90;;;;;;4926950;28;20063;-77
2022/09/04 05:55:41;;;;;;;5.53;3.60;;;16.40;99.90;;;;;;4927457;28;20049;-77
2022/09/04 05:58:21;;;;;;;5.03;3.53;;;16.50;99.90;;;;;;4926425;28;20053;-77
2022/09/04 06:00:59;;;;;;;4.43;3.13;;;16.50;99.90;;;;;;4936407;28;20050;-77
2022/09/04 06:04:05;;;;;;;4.72;3.17;;;16.50;99.90;;;;;;5004502;28;20077;-78
2022/09/04 06:06:52;;;;;;;4.38;3.55;;;16.60;99.90;;;;;;5001345;28;20458;-77
2022/09/04 06:09:33;;;;;;;3.85;3.45;;;16.60;99.90;;;;;;5033178;28;20026;-77
2022/09/04 06:12:20;;;;;;;3.60;2.75;;;16.60;99.90;;;;;;5019590;28;20037;-77
2022/09/04 06:15:00;;;;;;;4.03;3.05;;;16.70;99.90;;;;;;5002125;28;20050;-77
2022/09/04 06:17:43;;;;;;;3.00;2.50;;;16.80;99.90;;;;;;5003218;28;20033;-77
2022/09/04 06:20:21;;;;;;;3.58;2.95;;;16.90;99.90;;;;;;5000957;28;20474;-77
2022/09/04 06:22:54;;;;;;;5.15;3.38;;;17.00;99.90;;;;;;5032008;28;20025;-77
2022/09/04 06:25:37;;;;;;;5.32;3.67;;;17.10;99.90;;;;;;5018430;28;20034;-77
2022/09/04 06:28:12;;;;;;;3.47;2.85;;;17.20;99.90;;;;;;4997629;28;20041;-76
2022/09/04 06:30:53;;;;;;;4.15;3.00;;;17.20;99.90;;;;;;5035126;28;20034;-77
2022/09/04 06:33:39;;;;;;;3.78;3.40;;;17.30;99.90;;;;;;5002584;28;20033;-77
2022/09/04 06:36:22;;;;;;;4.07;3.67;;;17.40;99.90;;;;;;5002498;28;20029;-77
2022/09/04 06:39:25;;;;;;;3.53;2.83;;;17.70;99.90;;;;;;5003135;28;20029;-77
2022/09/04 06:42:21;;;;;;;4.75;3.10;;;17.80;99.90;;;;;;4961305;28;20638;-77
2022/09/04 06:44:56;;;;;;;3.20;2.75;;;18.00;99.90;;;;;;4965856;28;20023;-76
2022/09/04 06:47:40;;;;;;;4.57;2.90;;;18.10;99.90;;;;;;4963368;28;20518;-76
2022/09/04 06:50:31;;;;;;;3.92;3.28;;;18.30;99.90;;;;;;4961433;28;20406;-77
2022/09/04 06:53:35;;;;;;;3.15;2.78;;;18.40;99.90;;;;;;4978434;28;20042;-76
2022/09/04 06:56:25;;;;;;;4.25;2.75;;;18.60;99.90;;;;;;4965398;28;20045;-77
2022/09/04 06:59:03;;;;;;;4.50;3.70;;;18.80;99.90;;;;;;4967232;28;20387;-77
2022/09/04 07:01:59;;;;;;;3.83;3.25;;;19.10;99.90;;;;;;4986512;28;20022;-76
2022/09/04 07:04:52;;;;;;;4.07;2.92;;;19.30;99.90;;;;;;4958086;28;20065;-79
2022/09/04 07:07:46;;;;;;;4.65;2.90;;;19.30;99.90;;;;;;4972439;28;20085;-77
2022/09/04 07:10:16;;;;;;;5.65;2.80;;;19.50;99.90;;;;;;4965286;28;20039;-77
2022/09/04 07:12:57;;;;;;;2.80;2.35;;;19.70;99.90;;;;;;4967408;28;20476;-77
2022/09/04 07:15:48;;;;;;;3.72;2.25;;;19.80;99.90;;;;;;5000410;28;20514;-76
2022/09/04 07:18:44;;;;;;;3.15;2.10;;;19.90;99.90;;;;;;4985131;28;20041;-77
2022/09/04 07:21:14;;;;;;;2.80;2.13;;;20.10;99.90;;;;;;4966663;28;20500;-77
2022/09/04 07:23:52;;;;;;;4.55;3.08;;;20.20;99.90;;;;;;4954120;28;20027;-77
2022/09/04 07:26:27;;;;;;;3.40;2.70;;;20.20;99.90;;;;;;4983472;28;20467;-77
2022/09/04 07:29:12;;;;;;;3.38;2.58;;;20.40;99.90;;;;;;4966096;28;20090;-78
2022/09/04 07:32:02;;;;;;;3.50;2.65;;;20.50;99.90;;;;;;4970840;28;20034;-77
2022/09/04 07:34:30;;;;;;;3.15;2.22;;;20.80;99.90;;;;;;4967189;28;20042;-78
2022/09/04 07:37:04;;;;;;;2.83;2.40;;;20.90;99.90;;;;;;4968604;28;20483;-78
2022/09/04 07:39:36;;;;;;;3.00;2.17;;;21.00;99.90;;;;;;4968084;28;20041;-77
2022/09/04 07:42:15;;;;;;;5.13;2.42;;;21.10;99.90;;;;;;5038936;28;20045;-77
2022/09/04 07:44:48;;;;;;;4.00;2.63;;;21.20;99.90;;;;;;5040639;28;20087;-77
2022/09/04 07:47:25;;;;;;;2.40;1.92;;;21.40;99.90;;;;;;5009864;28;20026;-77
2022/09/04 07:50:08;;;;;;;4.38;2.70;;;21.50;99.90;;;;;;5007509;28;20163;-76
2022/09/04 07:53:13;;;;;;;2.70;2.28;;;21.60;99.90;;;;;;5005385;28;20041;-77
2022/09/04 07:56:20;;;;;;;2.70;2.22;;;21.60;99.90;;;;;;5023081;28;20037;-77
2022/09/04 07:59:01;;;;;;;3.58;2.50;;;21.70;99.90;;;;;;4936644;28;20054;-78
2022/09/04 08:01:49;;;;;;;3.65;2.45;;;22.00;99.90;;;;;;4952715;28;20039;-78
2022/09/04 08:05:00;;;;;;;4.35;1.77;;;22.20;99.90;;;;;;4936424;28;20574;-78
2022/09/04 08:07:37;;;;;;;3.50;1.63;;;22.50;99.90;;;;;;4949708;28;20031;-76
2022/09/04 08:10:06;;;;;;;2.67;1.60;;;22.60;99.90;;;;;;4948483;28;20498;-77
2022/09/04 08:12:42;;;;;;;3.33;1.42;;;22.70;99.90;;;;;;4952027;28;20182;-78
2022/09/04 08:15:23;;;;;;;4.45;1.52;;;22.90;99.90;;;;;;4917083;28;20267;-77
2022/09/04 08:18:13;;;;;;;3.13;2.10;;;22.90;99.90;;;;;;4931277;28;20031;-78
2022/09/04 08:20:44;;;;;;;;;;;22.90;99.90;;;;;;4917723;28;20038;-78
2022/09/04 08:24:05;;;;;;;2.30;1.77;;;23.10;99.90;;;;;;4946374;28;19910;-79
2022/09/04 08:27:15;;;;;;;3.33;2.28;;;23.10;99.90;;;;;;4885736;29;20123;-78
2022/09/04 08:29:44;;;;;;;2.75;1.70;;;23.50;99.90;;;;;;4892294;29;20462;-77
2022/09/04 08:32:41;;;;;;;3.27;2.10;;;23.50;99.90;;;;;;4876509;29;20055;-78
2022/09/04 08:35:41;;;;;;;2.53;1.67;;;23.50;99.90;;;;;;4866954;29;20122;-77
2022/09/04 08:38:09;;;;;;;2.40;1.10;;;23.60;99.90;;;;;;4924339;29;20036;-77
2022/09/04 08:40:50;;;;;;;2.65;1.50;;;23.90;99.90;;;;;;4925639;29;20047;-78
2022/09/04 08:43:49;;;;;;;3.65;2.08;;;23.80;99.90;;;;;;4926041;29;20532;-77
2022/09/04 08:46:43;;;;;;;3.75;1.80;;;23.80;99.90;;;;;;4926964;29;20508;-77
2022/09/04 08:49:42;;;;;;;2.28;1.63;;;24.10;99.90;;;;;;4925423;29;20028;-77
2022/09/04 08:52:33;;;;;;;1.90;1.10;;;24.40;99.90;;;;;;4926340;29;20076;-79
2022/09/04 08:55:26;;;;;;;2.63;1.70;;;24.60;99.90;;;;;;4925386;29;20043;-77
2022/09/04 08:58:01;;;;;;;3.97;2.20;;;24.70;99.90;;;;;;4926565;29;20036;-78
2022/09/04 09:00:47;;;;;;;2.80;1.73;;;24.50;99.90;;;;;;4971242;28;20038;-78
2022/09/04 09:03:40;;;;;;;2.08;1.35;;;24.70;99.90;;;;;;5003474;28;20072;-77
2022/09/04 09:06:26;;;;;;;2.20;1.15;;;24.90;99.90;;;;;;5006221;28;20034;-79
2022/09/04 09:09:33;;;;;;;4.78;1.17;;;25.20;99.90;;;;;;5020010;28;20030;-76
2022/09/04 09:12:07;;;;;;;2.55;1.50;;;25.20;99.90;;;;;;5037468;28;20482;-78
2022/09/04 09:15:01;;;;;;;3.00;1.40;;;25.00;99.90;;;;;;5002025;28;20387;-77
2022/09/04 09:17:38;;;;;;;2.15;0.93;;;25.30;99.90;;;;;;5004499;28;20574;-77
2022/09/04 09:20:33;;;;;;;3.28;1.20;;;25.70;99.90;;;;;;5003111;28;20041;-78
2022/09/04 09:23:16;;;;;;;1.77;0.98;;;25.70;99.90;;;;;;4985795;28;20057;-79
2022/09/04 09:25:54;;;;;;;1.40;0.80;;;25.70;99.90;;;;;;5018702;28;20030;-77
2022/09/04 09:29:01;;;;;;;2.05;0.80;;;25.90;99.90;;;;;;5002522;28;20461;-77
2022/09/04 09:31:51;;;;;;;2.25;0.77;;;26.10;99.90;;;;;;4926109;29;20492;-77
2022/09/04 09:34:35;;;;;;;1.70;1.10;;;26.30;99.90;;;;;;4944902;29;20044;-79
2022/09/04 09:37:27;;;;;;;2.92;0.70;;;26.30;99.90;;;;;;4928986;29;20123;-80
2022/09/04 09:40:10;;;;;;;2.08;0.70;;;26.50;99.90;;;;;;4944427;29;20396;-82
2022/09/04 09:43:13;;;;;;;2.08;0.80;;;26.70;99.90;;;;;;4943046;29;20464;-82
2022/09/04 09:46:14;;;;;;;3.47;0.70;;;26.80;99.90;;;;;;4940718;29;20039;-81
2022/09/04 09:48:53;;;;;;;2.58;1.00;;;26.90;99.90;;;;;;4930330;29;20129;-81
2022/09/04 09:51:48;;;;;;;1.92;0.70;;;26.80;99.90;;;;;;4944093;29;20476;-82
2022/09/04 09:54:24;;;;;;;2.22;0.80;;;27.30;99.90;;;;;;4947106;29;20043;-81
2022/09/04 09:57:20;;;;;;;1.63;0.60;;;27.10;99.90;;;;;;4943202;29;20036;-83
2022/09/04 10:00:04;;;;;;;1.70;0.60;;;27.40;99.90;;;;;;4929057;29;20532;-82
2022/09/04 10:02:53;;;;;;;1.50;0.60;;;27.70;99.90;;;;;;4982979;28;20041;-82
2022/09/04 10:05:31;;;;;;;1.45;0.60;;;27.40;99.90;;;;;;5020611;28;20030;-83
2022/09/04 10:08:03;;;;;;;1.15;0.50;;;27.10;99.90;;;;;;5003671;28;20112;-83
2022/09/04 10:11:08;;;;;;;1.25;0.47;;;27.50;99.90;;;;;;5035948;28;20018;-81
2022/09/04 10:13:52;;;;;;;1.23;0.50;;;27.50;99.90;;;;;;5003732;28;20042;-82
2022/09/04 10:16:44;;;;;;;2.30;0.50;;;27.40;99.90;;;;;;5009178;28;20030;-81
2022/09/04 10:19:39;;;;;;;1.77;0.63;;;27.70;99.90;;;;;;5005625;28;20406;-82
2022/09/04 10:22:50;;;;;;;1.33;0.60;;;27.70;99.90;;;;;;5005871;28;20029;-83
2022/09/04 10:25:30;;;;;;;1.88;0.65;;;27.70;99.90;;;;;;4984320;28;20049;-82
2022/09/04 10:28:15;;;;;;;2.10;0.88;;;27.40;99.90;;;;;;5034873;28;20057;-83
2022/09/04 10:31:16;;;;;;;1.55;0.50;;;27.70;99.90;;;;;;5002298;28;20037;-81
2022/09/04 10:33:53;;;;;;;1.40;0.60;;;27.80;99.90;;;;;;4975348;28;20503;-83
2022/09/04 10:36:44;;;;;;;1.98;0.60;;;27.90;99.90;;;;;;5009473;28;20168;-82
2022/09/04 10:42:25;;;;;;;1.00;0.40;;;28.40;99.90;;;;;;5019921;28;20048;-81
2022/09/04 10:45:25;;;;;;;1.25;0.40;;;28.70;99.90;;;;;;5007144;28;20021;-81
2022/09/04 10:48:02;;;;;;;1.25;0.60;;;28.20;99.90;;;;;;5005502;28;20655;-79
2022/09/04 10:51:07;;;;;;;2.70;0.40;;;28.30;99.90;;;;;;5018361;28;20486;-81
2022/09/04 10:54:15;;;;;;;0.70;0.38;;;28.50;99.90;;;;;;5000925;28;20057;-82
2022/09/04 10:57:13;;;;;;;1.98;0.60;;;28.90;99.90;;;;;;5003335;28;20034;-82
2022/09/04 10:59:55;;;;;;;2.05;0.40;;;28.40;99.90;;;;;;5003278;28;20042;-82
2022/09/04 11:02:23;;;;;;;1.52;0.40;;;29.00;99.90;;;;;;5001685;28;20117;-81
2022/09/04 11:05:07;;;;;;;1.73;0.33;;;29.30;99.90;;;;;;5003811;28;20014;-83
2022/09/04 11:07:47;;;;;;;0.98;0.55;;;29.60;99.90;;;;;;5002810;28;20316;-81
2022/09/04 11:10:32;;;;;;;0.80;0.40;;;29.50;99.90;;;;;;5005782;28;20075;-83
2022/09/04 11:13:22;;;;;;;1.30;0.50;;;29.30;99.90;;;;;;5016501;28;20042;-82
2022/09/04 11:16:08;;;;;;;0.90;0.45;;;29.10;99.90;;;;;;5002946;28;20041;-82
2022/09/04 11:18:58;;;;;;;1.25;0.40;;;29.10;99.90;;;;;;5019906;28;20430;-83
2022/09/04 11:22:01;;;;;;;1.15;0.40;;;28.90;99.90;;;;;;5002529;28;20029;-83
2022/09/04 11:25:05;;;;;;;0.80;0.30;;;28.50;99.90;;;;;;4966780;28;20080;-81
2022/09/04 11:27:52;;;;;;;0.80;0.40;;;28.90;99.90;;;;;;5004209;28;20423;-81
2022/09/04 11:30:27;;;;;;;0.90;0.30;;;29.20;99.90;;;;;;5005436;28;20056;-85
2022/09/04 11:33:11;;;;;;;1.02;0.35;;;29.50;99.90;;;;;;5000020;28;20061;-85
2022/09/04 11:36:04;;;;;;;1.40;0.32;;;30.10;99.90;;;;;;5036332;28;20475;-83
2022/09/04 11:38:53;;;;;;;0.88;0.30;;;30.00;99.90;;;;;;5006187;28;20030;-84
2022/09/04 11:41:50;;;;;;;1.33;0.30;;;30.10;99.90;;;;;;5003114;28;20038;-82
2022/09/04 11:44:29;;;;;;;0.75;0.30;;;30.30;99.90;;;;;;5003692;28;20064;-81
2022/09/04 11:47:14;;;;;;;1.58;0.30;;;30.30;99.90;;;;;;5038698;28;20034;-82
2022/09/04 11:50:11;;;;;;;0.63;0.30;;;29.90;99.90;;;;;;5020565;28;20113;-83
2022/09/04 11:52:55;;;;;;;1.00;0.30;;;29.40;99.90;;;;;;5007541;28;20086;-83
2022/09/04 11:55:33;;;;;;;0.80;0.38;;;29.20;99.90;;;;;;5006634;28;20034;-82
2022/09/04 11:58:13;;;;;;;0.82;0.30;;;29.20;99.90;;;;;;5007702;28;20034;-85
2022/09/04 12:01:02;;;;;;;1.00;0.30;;;29.50;99.90;;;;;;5020528;28;20485;-82
2022/09/04 12:03:48;;;;;;;1.08;0.30;;;29.50;99.90;;;;;;5021662;28;20018;-83
2022/09/04 12:06:53;;;;;;;0.80;0.20;;;30.00;99.90;;;;;;5012372;28;20591;-84
2022/09/04 12:09:38;;;;;;;0.63;0.30;;;29.70;99.90;;;;;;5006088;28;20026;-83
2022/09/04 12:12:42;;;;;;;0.60;0.30;;;29.70;99.90;;;;;;5005120;28;20034;-83
2022/09/04 12:15:31;;;;;;;0.98;0.30;;;30.00;99.90;;;;;;4967487;28;20162;-82
2022/09/04 12:18:23;;;;;;;1.63;0.30;;;29.70;99.90;;;;;;5005329;28;20054;-83
2022/09/04 12:21:18;;;;;;;0.43;0.20;;;29.70;99.90;;;;;;5018879;28;20026;-84
2022/09/04 12:24:07;;;;;;;1.17;0.30;;;29.90;99.90;;;;;;5000982;28;20100;-82
2022/09/04 12:26:57;;;;;;;1.88;0.30;;;29.50;99.90;;;;;;5018014;28;20034;-83
2022/09/04 12:30:04;;;;;;;2.83;0.50;;;29.40;99.90;;;;;;4993996;28;20041;-82
2022/09/04 12:33:00;;;;;;;0.40;0.22;;;29.20;99.90;;;;;;5008707;28;20046;-82
2022/09/04 12:36:03;;;;;;;0.43;0.22;;;29.00;99.90;;;;;;5006273;28;20235;-83
2022/09/04 12:38:54;;;;;;;1.00;0.20;;;28.90;99.90;;;;;;5003288;28;20033;-83
2022/09/04 12:41:48;;;;;;;0.68;0.28;;;28.90;99.90;;;;;;5019477;28;20045;-83
2022/09/04 12:44:21;;;;;;;0.75;0.20;;;29.30;99.90;;;;;;5022037;28;20084;-82
2022/09/04 12:47:01;;;;;;;1.60;0.25;;;29.20;99.90;;;;;;5035671;28;20042;-83
2022/09/04 12:49:48;;;;;;;1.20;0.20;;;28.80;99.90;;;;;;5019030;28;20045;-82
2022/09/04 12:52:20;;;;;;;0.28;0.20;;;28.40;99.90;;;;;;5003284;28;20030;-82
2022/09/04 12:55:21;;;;;;;0.45;0.30;;;28.50;99.90;;;;;;5020111;28;20109;-82
2022/09/04 12:58:02;;;;;;;0.43;0.30;;;28.40;99.90;;;;;;4963591;28;20038;-83
2022/09/04 13:00:43;;;;;;;0.70;0.30;;;28.10;99.90;;;;;;5019414;28;20036;-81
2022/09/04 13:04:00;;;;;;;1.10;0.30;;;28.00;99.90;;;;;;5003324;28;20026;-83
2022/09/04 13:06:26;;;;;;;0.93;0.20;;;28.00;99.90;;;;;;4997929;28;20399;-84
2022/09/04 13:08:57;;;;;;;0.70;0.20;;;27.30;99.90;;;;;;5020337;28;20032;-80
2022/09/04 13:11:32;;;;;;;1.00;0.20;;;27.60;99.90;;;;;;5021463;28;20442;-83
2022/09/04 13:14:19;;;;;;;0.80;0.30;;;27.70;99.90;;;;;;5005623;28;20391;-81
2022/09/04 13:17:08;;;;;;;1.17;0.30;;;27.50;99.90;;;;;;5005687;28;20022;-82
2022/09/04 13:19:47;;;;;;;0.73;0.20;;;27.70;99.90;;;;;;5002352;28;20026;-82
2022/09/04 13:22:34;;;;;;;2.35;0.20;;;27.90;99.90;;;;;;5016331;28;20026;-81
2022/09/04 13:25:21;;;;;;;0.50;0.22;;;27.80;99.90;;;;;;5002342;28;20105;-81
2022/09/04 13:28:11;;;;;;;2.25;0.30;;;27.60;99.90;;;;;;5003055;28;20175;-82
2022/09/04 13:30:43;;;;;;;;;;;27.60;99.90;;;;;;5037342;28;20046;-81
2022/09/04 13:33:38;;;;;;;1.05;0.30;;;27.70;99.90;;;;;;5034808;28;19932;-81
2022/09/04 13:36:09;;;;;;;0.50;0.20;;;27.40;99.90;;;;;;5007868;28;20037;-81
2022/09/04 13:39:07;;;;;;;0.68;0.30;;;27.50;99.90;;;;;;5020101;28;20108;-81
2022/09/04 13:41:44;;;;;;;0.70;0.30;;;27.40;99.90;;;;;;4924605;29;20108;-81
2022/09/04 13:44:42;;;;;;;0.65;0.30;;;27.50;99.90;;;;;;4941155;29;20023;-83
2022/09/04 13:47:23;;;;;;;0.57;0.20;;;27.30;99.90;;;;;;4923338;29;20119;-81
2022/09/04 13:49:54;;;;;;;0.73;0.30;;;27.30;99.90;;;;;;4924268;29;20473;-81
2022/09/04 13:52:35;;;;;;;2.00;0.30;;;27.30;99.90;;;;;;4940911;29;20080;-81
2022/09/04 13:55:11;;;;;;;1.80;0.20;;;27.50;99.90;;;;;;4924855;29;20091;-83
2022/09/04 13:57:48;;;;;;;0.80;0.28;;;27.60;99.90;;;;;;4925375;29;20062;-81
2022/09/04 14:00:15;;;;;;;0.98;0.30;;;27.50;99.90;;;;;;4925268;29;20166;-81
2022/09/04 14:02:43;;;;;;;0.40;0.20;;;27.40;99.90;;;;;;4924228;29;20035;-81
2022/09/04 14:05:19;;;;;;;0.70;0.22;;;27.50;99.90;;;;;;4940982;28;20072;-82
2022/09/04 14:07:50;;;;;;;0.85;0.20;;;27.70;99.90;;;;;;4924419;29;20058;-82
2022/09/04 14:10:33;;;;;;;1.05;0.28;;;27.60;99.90;;;;;;4941087;29;20038;-81
2022/09/04 14:13:40;;;;;;;1.65;0.30;;;27.50;99.90;;;;;;4922990;29;20480;-83
2022/09/04 14:16:13;;;;;;;0.98;0.30;;;27.30;99.90;;;;;;4922879;29;20532;-81
2022/09/04 14:18:59;;;;;;;0.80;0.30;;;27.20;99.90;;;;;;5002445;28;20117;-81
2022/09/04 14:22:01;;;;;;;0.82;0.30;;;27.20;99.90;;;;;;5003613;28;20022;-83
2022/09/04 14:24:31;;;;;;;0.60;0.20;;;27.20;99.90;;;;;;5034347;28;20462;-81
2022/09/04 14:27:15;;;;;;;0.52;0.22;;;27.30;99.90;;;;;;5018387;28;20073;-81
2022/09/04 14:29:59;;;;;;;2.72;0.30;;;27.40;99.90;;;;;;5034679;28;20066;-81